地図

経路データ

SID SEASON NUMBER BASIN SUBBASIN NAME ISO_TIME NATURE LAT LON WMO_WIND WMO_PRES WMO_AGENCY TRACK_TYPE DIST2LAND LANDFALL IFLAG USA_AGENCY USA_ATCF_ID USA_LAT USA_LON USA_RECORD USA_STATUS USA_WIND USA_PRES USA_SSHS USA_R34_NE USA_R34_SE USA_R34_SW USA_R34_NW USA_R50_NE USA_R50_SE USA_R50_SW USA_R50_NW USA_R64_NE USA_R64_SE USA_R64_SW USA_R64_NW USA_POCI USA_ROCI USA_RMW USA_EYE TOKYO_LAT TOKYO_LON TOKYO_GRADE TOKYO_WIND TOKYO_PRES TOKYO_R50_DIR TOKYO_R50_LONG TOKYO_R50_SHORT TOKYO_R30_DIR TOKYO_R30_LONG TOKYO_R30_SHORT TOKYO_LAND CMA_LAT CMA_LON CMA_CAT CMA_WIND CMA_PRES HKO_LAT HKO_LON HKO_CAT HKO_WIND HKO_PRES NEWDELHI_LAT NEWDELHI_LON NEWDELHI_GRADE NEWDELHI_WIND NEWDELHI_PRES NEWDELHI_CI NEWDELHI_DP NEWDELHI_POCI REUNION_LAT REUNION_LON REUNION_TYPE REUNION_WIND REUNION_PRES REUNION_TNUM REUNION_CI REUNION_RMW REUNION_R34_NE REUNION_R34_SE REUNION_R34_SW REUNION_R34_NW REUNION_R50_NE REUNION_R50_SE REUNION_R50_SW REUNION_R50_NW REUNION_R64_NE REUNION_R64_SE REUNION_R64_SW REUNION_R64_NW BOM_LAT BOM_LON BOM_TYPE BOM_WIND BOM_PRES BOM_TNUM BOM_CI BOM_RMW BOM_R34_NE BOM_R34_SE BOM_R34_SW BOM_R34_NW BOM_R50_NE BOM_R50_SE BOM_R50_SW BOM_R50_NW BOM_R64_NE BOM_R64_SE BOM_R64_SW BOM_R64_NW BOM_ROCI BOM_POCI BOM_EYE BOM_POS_METHOD BOM_PRES_METHOD NADI_LAT NADI_LON NADI_CAT NADI_WIND NADI_PRES WELLINGTON_LAT WELLINGTON_LON WELLINGTON_WIND WELLINGTON_PRES DS824_LAT DS824_LON DS824_STAGE DS824_WIND DS824_PRES TD9636_LAT TD9636_LON TD9636_STAGE TD9636_WIND TD9636_PRES TD9635_LAT TD9635_LON TD9635_WIND TD9635_PRES TD9635_ROCI NEUMANN_LAT NEUMANN_LON NEUMANN_CLASS NEUMANN_WIND NEUMANN_PRES MLC_LAT MLC_LON MLC_CLASS MLC_WIND MLC_PRES USA_GUST BOM_GUST BOM_GUST_PER REUNION_GUST REUNION_GUST_PER USA_SEAHGT USA_SEARAD_NE USA_SEARAD_SE USA_SEARAD_SW USA_SEARAD_NW STORM_SPEED STORM_DIR
1936239N19089 1936 42 NI BB NOT_NAMED 1936-08-26 00:00:00 TS 19.4000 89.1000 main 246 246 _________O____ -1 19.4000 89.1000 TC 30 4 241
1936239N19089 1936 42 NI BB NOT_NAMED 1936-08-26 03:00:00 TS 19.2918 88.8915 main 252 242 _________PO___ -1 19.2377 88.7873 TC 30 19.4000 89.1000 1 5 242
1936239N19089 1936 42 NI BB NOT_NAMED 1936-08-26 06:00:00 TS 19.1729 88.6463 main 233 222 _________OP___ -1 19.1000 88.5000 TC 30 19.2823 88.8657 1 5 245
1936239N19089 1936 42 NI BB NOT_NAMED 1936-08-26 09:00:00 TS 19.0691 88.3952 main 222 206 _________PP___ -1 18.9997 88.2377 TC 30 19.1616 88.6052 1 6 248
1936239N19089 1936 42 NI BB NOT_NAMED 1936-08-26 12:00:00 TS 18.9676 88.0961 main 206 183 _________OP___ -1 18.9000 87.9000 TC 30 19.0352 88.2921 1 8 251
1936239N19089 1936 42 NI BB NOT_NAMED 1936-08-26 15:00:00 TS 18.8252 87.6287 main 184 162 _________PO___ -1 18.7503 87.3573 TC 30 18.9000 87.9000 1 10 253
1936239N19089 1936 42 NI BB NOT_NAMED 1936-08-26 18:00:00 TS 18.6778 87.1098 main 162 158 _________OP___ -1 18.6000 86.8000 TC 30 18.7557 87.4196 1 10 253
1936239N19089 1936 42 NI BB NOT_NAMED 1936-08-26 21:00:00 TS 18.5457 86.6384 main 165 154 _________PP___ -1 18.4774 86.3676 TC 30 18.6139 86.9093 1 8 254
1936239N19089 1936 42 NI BB NOT_NAMED 1936-08-27 00:00:00 TS 18.4450 86.2723 main 164 153 _________OP___ -1 18.4000 86.1000 TC 30 18.4900 86.4445 1 6 254
1936239N19089 1936 42 NI BB NOT_NAMED 1936-08-27 03:00:00 TS 18.3924 86.0738 main 153 148 _________PO___ -1 18.3849 86.0476 TC 30 18.4000 86.1000 1 2 254
1936239N19089 1936 42 NI BB NOT_NAMED 1936-08-27 06:00:00 TS 18.3817 86.0355 main 148 148 _________OP___ -1 18.4000 86.1000 TC 30 18.3634 85.9711 1 0 253
1936239N19089 1936 42 NI BB NOT_NAMED 1936-08-27 09:00:00 TS 18.3809 86.0327 main 148 148 _________PP___ -1 18.4000 86.1000 TC 30 18.3618 85.9654 1 0 0
1936239N19089 1936 42 NI BB NOT_NAMED 1936-08-27 12:00:00 TS 18.3897 86.0636 main 153 153 _________OP___ -1 18.4000 86.1000 TC 30 18.3793 86.0271 1 1 74
1936239N19089 1936 42 NI BB NOT_NAMED 1936-08-27 15:00:00 TS 18.4000 86.1000 main 153 153 _________PO___ -1 18.4000 86.1000 TC 30 18.4000 86.1000 1 1 75
1936239N19089 1936 42 NI BB NOT_NAMED 1936-08-27 18:00:00 TS 18.4040 86.1203 main 153 153 _________OP___ -1 18.4000 86.1000 TC 30 18.4080 86.1407 1 1 79
1936239N19089 1936 42 NI BB NOT_NAMED 1936-08-27 21:00:00 TS 18.4111 86.1526 main 158 153 _________PP___ -1 18.4075 86.1300 TC 30 18.4148 86.1751 1 0 0
1936239N19089 1936 42 NI BB NOT_NAMED 1936-08-28 00:00:00 TS 18.4071 86.1360 main 153 148 _________OP___ -1 18.4000 86.1000 TC 30 18.4142 86.1720 1 1 256
1936239N19089 1936 42 NI BB NOT_NAMED 1936-08-28 03:00:00 TS 18.3787 86.0225 main 148 138 _________PO___ -1 18.3575 85.9450 TC 30 18.4000 86.1000 1 3 256
1936239N19089 1936 42 NI BB NOT_NAMED 1936-08-28 06:00:00 TS 18.3282 85.8088 main 138 110 _________OP___ -1 18.3000 85.7000 TC 30 18.3565 85.9176 1 5 257
1936239N19089 1936 42 NI BB NOT_NAMED 1936-08-28 09:00:00 TS 18.2714 85.5336 main 110 99 _________PP___ -1 18.2426 85.4000 TC 30 18.3003 85.6672 1 5 259
1936239N19089 1936 42 NI BB NOT_NAMED 1936-08-28 12:00:00 TS 18.2220 85.2416 main 92 76 _________OP___ -1 18.2000 85.1000 TC 30 18.2440 85.3832 1 5 262
1936239N19089 1936 42 NI BB NOT_NAMED 1936-08-28 15:00:00 TS 18.1962 84.9963 main 76 61 _________PO___ -1 18.1924 84.8925 TC 30 18.2000 85.1000 1 4 264
1936239N19089 1936 42 NI BB NOT_NAMED 1936-08-28 18:00:00 TS 18.1785 84.7919 main 61 46 _________OP___ -1 18.2000 84.7000 TC 30 18.1569 84.8838 1 4 264
1936239N19089 1936 42 NI BB NOT_NAMED 1936-08-28 21:00:00 TS 18.1548 84.5722 main 46 23 _________PP___ -1 18.1774 84.4724 TC 30 18.1321 84.6721 1 4 269
1936239N19089 1936 42 NI BB NOT_NAMED 1936-08-29 00:00:00 TS 18.1706 84.3246 main 23 0 _________OP___ -1 18.2000 84.2000 TC 30 18.1413 84.4493 1 5 282
1936239N19089 1936 42 NI BB NOT_NAMED 1936-08-29 03:00:00 TS 18.2600 84.0288 main 0 0 _________PO___ -1 18.3201 83.8576 TC 30 18.2000 84.2000 1 6 291
1936239N19089 1936 42 NI BB NOT_NAMED 1936-08-29 06:00:00 TS 18.4064 83.6939 main 0 0 _________OP___ -1 18.5000 83.5000 TC 30 18.3127 83.8878 1 7 297
1936239N19089 1936 42 NI BB NOT_NAMED 1936-08-29 09:00:00 TS 18.5801 83.3676 main 0 0 _________PP___ -1 18.6849 83.1849 TC 30 18.4753 83.5503 1 7 302
1936239N19089 1936 42 NI BB NOT_NAMED 1936-08-29 12:00:00 TS 18.7876 83.0564 main 0 0 _________OP___ -1 18.9000 82.9000 TC 30 18.6752 83.2127 1 7 308
1936239N19089 1936 42 NI BB NOT_NAMED 1936-08-29 15:00:00 TS 19.0212 82.7675 main 0 0 _________PO___ -1 19.1425 82.6350 TC 30 18.9000 82.9000 1 7 313
1936239N19089 1936 42 NI BB NOT_NAMED 1936-08-29 18:00:00 TS 19.2508 82.5322 main 0 0 _________OP___ -1 19.4000 82.4000 TC 30 19.1389 82.6313 1 6 318
1936239N19089 1936 42 NI BB NOT_NAMED 1936-08-29 21:00:00 TS 19.4934 82.3171 main 0 0 _________PP___ -1 19.6525 82.1926 TC 30 19.3873 82.4002 1 6 321
1936239N19089 1936 42 NI BB NOT_NAMED 1936-08-30 00:00:00 TS 19.7281 82.1293 main 0 0 _________OP___ -1 19.9000 82.0000 TC 30 19.6421 82.1940 1 5 324
1936239N19089 1936 42 NI BB NOT_NAMED 1936-08-30 03:00:00 NR 19.9000 82.0000 main 0 __________O___ -1 TC 19.9000 82.0000 1 4 325

IBTrACS Databaseについて

本データベースは、米国NOAAが公開する1842年以降の世界の熱帯低気圧のベストトラックデータアーカイブInternational Best Track Archive for Climate Stewardship (IBTrACS)を、ウェブで閲覧しやすい形式に変換したものです。

最終更新日:2021-10-19